createdAt,value
2023-02-04T00:00:38.034Z,98342.00
2023-02-04T00:05:38.773Z,98327.00
2023-02-04T00:10:39.583Z,98331.00
2023-02-04T00:15:40.333Z,98322.00
2023-02-04T00:20:41.646Z,98336.00
2023-02-04T00:25:42.367Z,98339.00
2023-02-04T00:30:44.164Z,98349.00
2023-02-04T00:35:44.900Z,98356.00
2023-02-04T00:40:45.643Z,98367.00
2023-02-04T00:45:46.477Z,98367.00
2023-02-04T00:50:47.331Z,98374.00
2023-02-04T00:55:48.087Z,98379.00
2023-02-04T01:00:49.242Z,98391.00
2023-02-04T01:05:50.020Z,98391.00
2023-02-04T01:10:50.808Z,98391.00
2023-02-04T01:15:51.571Z,98377.00
2023-02-04T01:20:52.673Z,98385.00
2023-02-04T01:25:53.567Z,98390.00
2023-02-04T01:30:54.531Z,98406.00
2023-02-04T01:35:55.357Z,98408.00
2023-02-04T01:40:57.065Z,98406.00
2023-02-04T01:45:58.843Z,98424.00
2023-02-04T01:51:08.249Z,98435.00
2023-02-04T01:56:19.376Z,98444.00
2023-02-04T02:01:44.193Z,98440.00
2023-02-04T02:06:53.106Z,98442.00
2023-02-04T02:11:54.324Z,98447.00
2023-02-04T02:16:55.382Z,98450.00
2023-02-04T02:22:04.606Z,98459.00
2023-02-04T02:27:08.449Z,98446.00
2023-02-04T02:32:11.809Z,98457.00
2023-02-04T02:37:13.214Z,98453.00
2023-02-04T02:42:16.833Z,98455.00
2023-02-04T02:47:20.912Z,98459.00
2023-02-04T02:52:22.226Z,98466.00
2023-02-04T02:57:23.251Z,98483.00
2023-02-04T03:02:24.428Z,98489.00
2023-02-04T03:07:25.761Z,98493.00
2023-02-04T03:12:26.608Z,98491.00
2023-02-04T03:17:29.356Z,98490.00
2023-02-04T03:22:30.377Z,98504.00
2023-02-04T03:27:32.292Z,98499.00
2023-02-04T03:32:33.335Z,98503.00
2023-02-04T03:37:34.126Z,98506.00
2023-02-04T03:42:34.870Z,98504.00
2023-02-04T03:47:36.012Z,98523.00
2023-02-04T03:52:36.909Z,98514.00
2023-02-04T03:57:37.659Z,98517.00
2023-02-04T04:02:39.844Z,98516.00
2023-02-04T04:07:40.625Z,98520.00
2023-02-04T04:12:41.409Z,98544.00
2023-02-04T04:17:42.203Z,98542.00
2023-02-04T04:22:44.843Z,98545.00
2023-02-04T04:27:46.528Z,98552.00
2023-02-04T04:32:47.297Z,98559.00
2023-02-04T04:37:48.111Z,98558.00
2023-02-04T04:42:48.855Z,98558.00
2023-02-04T04:47:49.684Z,98555.00
2023-02-04T04:52:50.606Z,98564.00
2023-02-04T04:57:51.366Z,98558.00
2023-02-04T05:02:52.104Z,98570.00
2023-02-04T05:07:52.935Z,98563.00
2023-02-04T05:12:53.673Z,98560.00
2023-02-04T05:17:54.551Z,98556.00
2023-02-04T05:22:56.508Z,98546.00
2023-02-04T05:27:57.277Z,98548.00
2023-02-04T05:32:58.347Z,98557.00
2023-02-04T05:37:59.072Z,98571.00
2023-02-04T05:43:00.011Z,98583.00
2023-02-04T05:48:00.958Z,98596.00
2023-02-04T05:53:01.791Z,98593.00
2023-02-04T05:58:02.567Z,98611.00
2023-02-04T06:03:03.472Z,98610.00
2023-02-04T06:08:04.339Z,98615.00
2023-02-04T06:13:05.095Z,98616.00
2023-02-04T06:18:06.537Z,98618.00
2023-02-04T06:23:07.497Z,98634.00
2023-02-04T06:28:08.316Z,98631.00
2023-02-04T06:33:09.259Z,98643.00
2023-02-04T06:38:09.996Z,98645.00
2023-02-04T06:43:10.764Z,98653.00
2023-02-04T06:48:11.468Z,98662.00
2023-02-04T06:53:12.442Z,98676.00
2023-02-04T06:58:13.167Z,98668.00
2023-02-04T07:03:14.022Z,98674.00
2023-02-04T07:08:14.713Z,98672.00
2023-02-04T07:13:15.511Z,98671.00
2023-02-04T07:18:17.099Z,98686.00
2023-02-04T07:23:17.948Z,98688.00
2023-02-04T07:28:19.188Z,98690.00
2023-02-04T07:33:20.284Z,98709.00
2023-02-04T07:38:20.996Z,98722.00
2023-02-04T07:43:21.797Z,98724.00
2023-02-04T07:48:22.614Z,98731.00
2023-02-04T07:53:23.660Z,98734.00
2023-02-04T07:58:24.380Z,98739.00
2023-02-04T08:03:25.176Z,98741.00
2023-02-04T08:08:26.128Z,98750.00
2023-02-04T08:13:27.102Z,98759.00
2023-02-04T08:18:28.220Z,98756.00
2023-02-04T08:23:29.091Z,98760.00
2023-02-04T08:28:29.795Z,98759.00
2023-02-04T08:33:30.688Z,98761.00
2023-02-04T08:38:31.471Z,98759.00
2023-02-04T08:43:32.483Z,98776.00
2023-02-04T08:48:33.246Z,98777.00
2023-02-04T08:53:34.231Z,98787.00
2023-02-04T08:58:35.402Z,98784.00
2023-02-04T09:03:39.558Z,98795.00
2023-02-04T09:08:40.283Z,98812.00
2023-02-04T09:13:41.041Z,98817.00
2023-02-04T09:18:41.779Z,98824.00
2023-02-04T09:23:43.957Z,98827.00
2023-02-04T09:28:44.903Z,98824.00
2023-02-04T09:33:46.049Z,98828.00
2023-02-04T09:38:46.812Z,98834.00
2023-02-04T09:43:48.386Z,98838.00
2023-02-04T09:48:50.341Z,98856.00
2023-02-04T09:53:56.345Z,98855.00
2023-02-04T09:58:57.078Z,98857.00
2023-02-04T10:04:01.092Z,98874.00
2023-02-04T10:09:02.264Z,98875.00
2023-02-04T10:14:03.070Z,98883.00
2023-02-04T10:19:06.877Z,98892.00
2023-02-04T10:24:29.455Z,98897.00
2023-02-04T10:29:30.378Z,98892.00
2023-02-04T10:34:39.070Z,98884.00
2023-02-04T10:39:42.724Z,98888.00
2023-02-04T10:44:46.433Z,98886.00
2023-02-04T10:50:21.918Z,98885.00
2023-02-04T10:55:23.667Z,98881.00
2023-02-04T11:00:25.335Z,98880.00
2023-02-04T11:05:33.531Z,98875.00
2023-02-04T11:10:35.527Z,98882.00
2023-02-04T11:15:46.643Z,98891.00
2023-02-04T11:20:51.379Z,98884.00
2023-02-04T11:26:10.493Z,98885.00
2023-02-04T11:31:38.622Z,98880.00
2023-02-04T11:37:17.228Z,98898.00
2023-02-04T11:42:32.434Z,98894.00
2023-02-04T11:47:35.032Z,98883.00
2023-02-04T11:52:35.791Z,98898.00
2023-02-04T11:57:42.472Z,98879.00
2023-02-04T12:02:46.687Z,98881.00
2023-02-04T12:07:48.521Z,98890.00
2023-02-04T12:12:57.020Z,98889.00
2023-02-04T12:18:09.057Z,98886.00
2023-02-04T12:23:09.859Z,98890.00
2023-02-04T12:28:10.713Z,98890.00
2023-02-04T12:33:13.563Z,98880.00
2023-02-04T12:38:15.714Z,98883.00
2023-02-04T12:43:16.431Z,98883.00
2023-02-04T12:48:17.349Z,98891.00
2023-02-04T12:53:18.223Z,98899.00
2023-02-04T12:58:19.069Z,98895.00
2023-02-04T13:03:19.855Z,98888.00
2023-02-04T13:08:20.692Z,98889.00
2023-02-04T13:13:21.917Z,98898.00
2023-02-04T13:18:22.710Z,98880.00
2023-02-04T13:23:23.443Z,98893.00
2023-02-04T13:28:24.361Z,98889.00
2023-02-04T13:33:25.068Z,98886.00
2023-02-04T13:38:26.121Z,98886.00
2023-02-04T13:43:26.896Z,98879.00
2023-02-04T13:48:27.685Z,98872.00
2023-02-04T13:53:30.309Z,98879.00
2023-02-04T13:58:31.331Z,98886.00
2023-02-04T14:03:32.072Z,98892.00
2023-02-04T14:08:32.951Z,98898.00
2023-02-04T14:13:33.779Z,98898.00
2023-02-04T14:18:34.842Z,98892.00
2023-02-04T14:23:36.282Z,98892.00
2023-02-04T14:29:18.629Z,98890.00
2023-02-04T14:34:20.464Z,98898.00
2023-02-04T14:40:15.210Z,98897.00
2023-02-04T14:45:19.792Z,98889.00
2023-02-04T14:51:51.390Z,98900.00
2023-02-04T14:56:52.157Z,98887.00
2023-02-04T15:02:14.490Z,98893.00
2023-02-04T15:07:18.297Z,98901.00
2023-02-04T15:17:54.760Z,98881.00
2023-02-04T15:28:33.446Z,98896.00
2023-02-04T15:39:26.705Z,98914.00
2023-02-04T15:44:54.957Z,98922.00
2023-02-04T15:49:55.762Z,98923.00
2023-02-04T15:55:30.730Z,98921.00
2023-02-04T16:00:31.816Z,98933.00
2023-02-04T16:05:56.384Z,98935.00
2023-02-04T16:10:57.253Z,98930.00
2023-02-04T16:16:17.792Z,98932.00
2023-02-04T16:21:18.874Z,98943.00
2023-02-04T16:26:23.683Z,98941.00
2023-02-04T16:31:27.269Z,98947.00
2023-02-04T16:36:35.582Z,98948.00
2023-02-04T16:41:40.026Z,98948.00
2023-02-04T16:46:54.699Z,98953.00
2023-02-04T16:52:05.585Z,98954.00
2023-02-04T16:57:21.297Z,98953.00
2023-02-04T17:02:22.101Z,98954.00
2023-02-04T17:08:13.798Z,98962.00
2023-02-04T17:13:14.981Z,98966.00
2023-02-04T17:18:30.928Z,98973.00
2023-02-04T17:23:39.416Z,98973.00
2023-02-04T17:28:41.073Z,98976.00
2023-02-04T17:33:41.974Z,98986.00
2023-02-04T17:38:49.900Z,98982.00
2023-02-04T17:43:50.869Z,98976.00
2023-02-04T17:48:53.888Z,98983.00
2023-02-04T17:53:54.786Z,98988.00
2023-02-04T17:59:01.262Z,98992.00
2023-02-04T18:04:04.317Z,98992.00
2023-02-04T18:09:23.045Z,98992.00
2023-02-04T18:14:26.875Z,98990.00
2023-02-04T18:19:36.438Z,98991.00
2023-02-04T18:24:43.179Z,98996.00
2023-02-04T18:29:50.586Z,99004.00
2023-02-04T18:34:56.564Z,98997.00
2023-02-04T18:42:01.976Z,98996.00
2023-02-04T18:47:23.951Z,99000.00
2023-02-04T18:52:26.500Z,98992.00
2023-02-04T18:57:36.477Z,98992.00
2023-02-04T19:04:12.160Z,99003.00
2023-02-04T19:09:31.650Z,99010.00
2023-02-04T19:14:44.211Z,99008.00
2023-02-04T19:20:02.354Z,98999.00
2023-02-04T19:25:38.933Z,98997.00
2023-02-04T19:30:44.213Z,99007.00
2023-02-04T19:35:53.335Z,99006.00
2023-02-04T19:40:54.340Z,99007.00
2023-02-04T19:45:58.025Z,99004.00
2023-02-04T19:51:01.905Z,99009.00
2023-02-04T20:02:57.432Z,99005.00
2023-02-04T20:08:38.794Z,99001.00
2023-02-04T20:13:45.371Z,99011.00
2023-02-04T20:18:46.898Z,99010.00
2023-02-04T20:24:03.331Z,99030.00
2023-02-04T20:29:22.326Z,99030.00
2023-02-04T20:34:26.660Z,99034.00
2023-02-04T20:39:34.254Z,99034.00
2023-02-04T20:44:42.951Z,99032.00
2023-02-04T20:49:54.436Z,99039.00
2023-02-04T20:55:05.615Z,99038.00
2023-02-04T21:00:28.887Z,99038.00
2023-02-04T21:05:41.922Z,99039.00
2023-02-04T21:10:42.917Z,99032.00
2023-02-04T21:16:00.093Z,99038.00
2023-02-04T21:21:07.568Z,99039.00
2023-02-04T21:26:08.325Z,99031.00
2023-02-04T21:31:11.037Z,99040.00
2023-02-04T21:36:11.823Z,99032.00
2023-02-04T21:41:13.145Z,99033.00
2023-02-04T21:46:14.379Z,99031.00
2023-02-04T21:51:15.381Z,99038.00
2023-02-04T21:56:16.136Z,99034.00
2023-02-04T22:01:17.067Z,99034.00
2023-02-04T22:06:17.812Z,99033.00
2023-02-04T22:11:18.918Z,99036.00
2023-02-04T22:16:19.679Z,99042.00
2023-02-04T22:21:20.665Z,99038.00
2023-02-04T22:26:21.386Z,99031.00
2023-02-04T22:31:22.154Z,99033.00
2023-02-04T22:36:22.909Z,99040.00
2023-02-04T22:41:23.664Z,99029.00
2023-02-04T22:46:24.821Z,99033.00
2023-02-04T22:51:25.788Z,99041.00
2023-02-04T22:56:27.459Z,99036.00
2023-02-04T23:01:28.539Z,99038.00
2023-02-04T23:06:29.434Z,99044.00
2023-02-04T23:11:30.218Z,99041.00
2023-02-04T23:16:31.069Z,99035.00
2023-02-04T23:21:32.775Z,99023.00
2023-02-04T23:26:33.636Z,99032.00
2023-02-04T23:31:34.580Z,99033.00
2023-02-04T23:36:35.834Z,99027.00
2023-02-04T23:41:36.594Z,99024.00
2023-02-04T23:46:37.366Z,99014.00
2023-02-04T23:51:38.485Z,99021.00
2023-02-04T23:56:39.456Z,99021.00
